sensor_id;sensor_type;location;lat;lon;timestamp;temperature;humidity
31765;DHT22;18338;53.240;8.798;2023-03-12T00:02:21;0.40;99.90
31765;DHT22;18338;53.240;8.798;2023-03-12T00:04:48;0.40;99.90
31765;DHT22;18338;53.240;8.798;2023-03-12T00:07:15;0.30;99.90
31765;DHT22;18338;53.240;8.798;2023-03-12T00:09:42;0.40;99.90
31765;DHT22;18338;53.240;8.798;2023-03-12T00:12:08;0.30;99.90
31765;DHT22;18338;53.240;8.798;2023-03-12T00:14:35;0.30;99.90
31765;DHT22;18338;53.240;8.798;2023-03-12T00:17:03;0.30;99.90
31765;DHT22;18338;53.240;8.798;2023-03-12T00:19:30;0.20;99.90
31765;DHT22;18338;53.240;8.798;2023-03-12T00:21:56;0.20;99.90
31765;DHT22;18338;53.240;8.798;2023-03-12T00:24:24;0.00;99.90
31765;DHT22;18338;53.240;8.798;2023-03-12T00:26:59;0.00;99.90
31765;DHT22;18338;53.240;8.798;2023-03-12T00:29:25;0.00;99.90
31765;DHT22;18338;53.240;8.798;2023-03-12T00:31:52;0.00;99.90
31765;DHT22;18338;53.240;8.798;2023-03-12T00:34:19;0.00;99.90
31765;DHT22;18338;53.240;8.798;2023-03-12T00:36:46;-0.10;99.90
31765;DHT22;18338;53.240;8.798;2023-03-12T00:39:13;0.00;99.90
31765;DHT22;18338;53.240;8.798;2023-03-12T00:41:40;-0.10;99.90
31765;DHT22;18338;53.240;8.798;2023-03-12T00:44:06;-0.10;99.90
31765;DHT22;18338;53.240;8.798;2023-03-12T00:46:33;-0.10;99.90
31765;DHT22;18338;53.240;8.798;2023-03-12T00:49:00;-0.10;99.90
31765;DHT22;18338;53.240;8.798;2023-03-12T00:51:26;-0.10;99.90
31765;DHT22;18338;53.240;8.798;2023-03-12T00:53:53;0.00;99.90
31765;DHT22;18338;53.240;8.798;2023-03-12T00:56:21;0.10;99.90
31765;DHT22;18338;53.240;8.798;2023-03-12T00:58:48;0.10;99.90
31765;DHT22;18338;53.240;8.798;2023-03-12T01:01:15;0.00;99.90
31765;DHT22;18338;53.240;8.798;2023-03-12T01:03:42;-0.10;99.90
31765;DHT22;18338;53.240;8.798;2023-03-12T01:06:09;0.00;99.90
31765;DHT22;18338;53.240;8.798;2023-03-12T01:08:36;0.00;99.90
31765;DHT22;18338;53.240;8.798;2023-03-12T01:11:04;0.10;99.90
31765;DHT22;18338;53.240;8.798;2023-03-12T01:13:31;0.10;99.90
31765;DHT22;18338;53.240;8.798;2023-03-12T01:15:57;0.10;99.90
31765;DHT22;18338;53.240;8.798;2023-03-12T01:18:24;0.10;99.90
31765;DHT22;18338;53.240;8.798;2023-03-12T01:20:52;0.00;99.90
31765;DHT22;18338;53.240;8.798;2023-03-12T01:23:18;0.00;99.90
31765;DHT22;18338;53.240;8.798;2023-03-12T01:25:45;0.00;99.90
31765;DHT22;18338;53.240;8.798;2023-03-12T01:28:12;0.00;99.90
31765;DHT22;18338;53.240;8.798;2023-03-12T01:30:39;0.00;99.90
31765;DHT22;18338;53.240;8.798;2023-03-12T01:33:06;0.00;99.90
31765;DHT22;18338;53.240;8.798;2023-03-12T01:35:38;0.00;99.90
31765;DHT22;18338;53.240;8.798;2023-03-12T01:38:06;0.00;99.90
31765;DHT22;18338;53.240;8.798;2023-03-12T01:40:35;-0.10;99.90
31765;DHT22;18338;53.240;8.798;2023-03-12T01:43:22;0.00;99.90
31765;DHT22;18338;53.240;8.798;2023-03-12T01:46:15;-0.10;99.90
31765;DHT22;18338;53.240;8.798;2023-03-12T01:49:09;-0.10;99.90
31765;DHT22;18338;53.240;8.798;2023-03-12T01:57:19;-0.30;99.90
31765;DHT22;18338;53.240;8.798;2023-03-12T01:59:56;-0.20;99.90
31765;DHT22;18338;53.240;8.798;2023-03-12T02:02:24;-0.20;99.90
31765;DHT22;18338;53.240;8.798;2023-03-12T02:07:45;-0.30;99.90
31765;DHT22;18338;53.240;8.798;2023-03-12T02:10:12;-0.30;99.90
31765;DHT22;18338;53.240;8.798;2023-03-12T02:12:39;-0.40;99.90
31765;DHT22;18338;53.240;8.798;2023-03-12T02:15:06;-0.40;99.90
31765;DHT22;18338;53.240;8.798;2023-03-12T02:17:34;-0.40;99.90
31765;DHT22;18338;53.240;8.798;2023-03-12T02:20:20;-0.40;99.90
31765;DHT22;18338;53.240;8.798;2023-03-12T02:22:58;-0.40;99.90
31765;DHT22;18338;53.240;8.798;2023-03-12T02:25:41;-0.40;99.90
31765;DHT22;18338;53.240;8.798;2023-03-12T02:28:13;-0.50;99.90
31765;DHT22;18338;53.240;8.798;2023-03-12T02:30:42;-0.60;99.90
31765;DHT22;18338;53.240;8.798;2023-03-12T02:33:11;-0.70;99.90
31765;DHT22;18338;53.240;8.798;2023-03-12T02:35:38;-0.70;99.90
31765;DHT22;18338;53.240;8.798;2023-03-12T02:38:35;-0.60;99.90
31765;DHT22;18338;53.240;8.798;2023-03-12T02:41:26;-0.60;99.90
31765;DHT22;18338;53.240;8.798;2023-03-12T02:44:05;-0.70;99.90
31765;DHT22;18338;53.240;8.798;2023-03-12T02:46:42;-0.70;99.90
31765;DHT22;18338;53.240;8.798;2023-03-12T02:49:10;-0.60;99.90
31765;DHT22;18338;53.240;8.798;2023-03-12T02:51:41;-0.70;99.90
31765;DHT22;18338;53.240;8.798;2023-03-12T02:54:08;-0.70;99.90
31765;DHT22;18338;53.240;8.798;2023-03-12T02:56:35;-0.80;99.90
31765;DHT22;18338;53.240;8.798;2023-03-12T02:59:03;-0.90;99.90
31765;DHT22;18338;53.240;8.798;2023-03-12T03:01:30;-1.00;99.90
31765;DHT22;18338;53.240;8.798;2023-03-12T03:04:01;-1.00;99.90
31765;DHT22;18338;53.240;8.798;2023-03-12T03:06:28;-1.00;99.90
31765;DHT22;18338;53.240;8.798;2023-03-12T03:08:55;-0.90;99.90
31765;DHT22;18338;53.240;8.798;2023-03-12T03:11:22;-1.00;99.90
31765;DHT22;18338;53.240;8.798;2023-03-12T03:13:51;-0.90;99.90
31765;DHT22;18338;53.240;8.798;2023-03-12T03:16:17;-0.90;99.90
31765;DHT22;18338;53.240;8.798;2023-03-12T03:18:44;-1.00;99.90
31765;DHT22;18338;53.240;8.798;2023-03-12T03:21:11;-1.00;99.90
31765;DHT22;18338;53.240;8.798;2023-03-12T03:23:43;-1.10;99.90
31765;DHT22;18338;53.240;8.798;2023-03-12T03:26:11;-1.10;99.90
31765;DHT22;18338;53.240;8.798;2023-03-12T03:28:38;-1.20;99.90
31765;DHT22;18338;53.240;8.798;2023-03-12T03:31:05;-1.20;99.90
31765;DHT22;18338;53.240;8.798;2023-03-12T03:33:35;-1.20;99.90
31765;DHT22;18338;53.240;8.798;2023-03-12T03:36:03;-1.20;99.90
31765;DHT22;18338;53.240;8.798;2023-03-12T03:38:31;-1.20;99.90
31765;DHT22;18338;53.240;8.798;2023-03-12T03:40:58;-1.30;99.90
31765;DHT22;18338;53.240;8.798;2023-03-12T03:43:26;-1.30;99.90
31765;DHT22;18338;53.240;8.798;2023-03-12T03:46:01;-1.30;99.90
31765;DHT22;18338;53.240;8.798;2023-03-12T03:48:28;-1.30;99.90
31765;DHT22;18338;53.240;8.798;2023-03-12T03:51:00;-1.40;99.90
31765;DHT22;18338;53.240;8.798;2023-03-12T03:53:27;-1.40;99.90
31765;DHT22;18338;53.240;8.798;2023-03-12T03:55:54;-1.20;99.90
31765;DHT22;18338;53.240;8.798;2023-03-12T03:58:21;-1.20;99.90
31765;DHT22;18338;53.240;8.798;2023-03-12T04:00:47;-1.10;99.90
31765;DHT22;18338;53.240;8.798;2023-03-12T04:03:15;-1.00;99.90
31765;DHT22;18338;53.240;8.798;2023-03-12T04:05:42;-1.00;99.90
31765;DHT22;18338;53.240;8.798;2023-03-12T04:08:11;-0.90;99.90
31765;DHT22;18338;53.240;8.798;2023-03-12T04:10:39;-0.90;99.90
31765;DHT22;18338;53.240;8.798;2023-03-12T04:13:06;-0.80;99.90
31765;DHT22;18338;53.240;8.798;2023-03-12T04:15:32;-0.80;99.90
31765;DHT22;18338;53.240;8.798;2023-03-12T04:18:00;-0.70;99.90
31765;DHT22;18338;53.240;8.798;2023-03-12T04:20:27;-0.70;99.90
31765;DHT22;18338;53.240;8.798;2023-03-12T04:22:55;-0.70;99.90
31765;DHT22;18338;53.240;8.798;2023-03-12T04:25:23;-0.70;99.90
31765;DHT22;18338;53.240;8.798;2023-03-12T04:27:50;-0.70;99.90
31765;DHT22;18338;53.240;8.798;2023-03-12T04:30:17;-0.70;99.90
31765;DHT22;18338;53.240;8.798;2023-03-12T04:32:43;-0.70;99.90
31765;DHT22;18338;53.240;8.798;2023-03-12T04:35:10;-0.70;99.90
31765;DHT22;18338;53.240;8.798;2023-03-12T04:37:37;-0.70;99.90
31765;DHT22;18338;53.240;8.798;2023-03-12T04:40:04;-0.60;99.90
31765;DHT22;18338;53.240;8.798;2023-03-12T04:42:34;-0.60;99.90
31765;DHT22;18338;53.240;8.798;2023-03-12T04:45:02;-0.70;99.90
31765;DHT22;18338;53.240;8.798;2023-03-12T04:47:30;-0.70;99.90
31765;DHT22;18338;53.240;8.798;2023-03-12T04:49:57;-0.80;99.90
31765;DHT22;18338;53.240;8.798;2023-03-12T04:52:24;-0.70;99.90
31765;DHT22;18338;53.240;8.798;2023-03-12T04:54:50;-0.80;99.90
31765;DHT22;18338;53.240;8.798;2023-03-12T04:57:17;-0.70;99.90
31765;DHT22;18338;53.240;8.798;2023-03-12T04:59:44;-0.80;99.90
31765;DHT22;18338;53.240;8.798;2023-03-12T05:02:11;-0.80;99.90
31765;DHT22;18338;53.240;8.798;2023-03-12T05:04:38;-0.80;99.90
31765;DHT22;18338;53.240;8.798;2023-03-12T05:07:06;-0.80;99.90
31765;DHT22;18338;53.240;8.798;2023-03-12T05:09:33;-0.90;99.90
31765;DHT22;18338;53.240;8.798;2023-03-12T05:11:59;-0.90;99.90
31765;DHT22;18338;53.240;8.798;2023-03-12T05:14:26;-0.90;99.90
31765;DHT22;18338;53.240;8.798;2023-03-12T05:16:53;-0.90;99.90
31765;DHT22;18338;53.240;8.798;2023-03-12T05:19:20;-0.90;99.90
31765;DHT22;18338;53.240;8.798;2023-03-12T05:21:46;-0.90;99.90
31765;DHT22;18338;53.240;8.798;2023-03-12T05:24:14;-0.80;99.90
31765;DHT22;18338;53.240;8.798;2023-03-12T05:26:42;-0.80;99.90
31765;DHT22;18338;53.240;8.798;2023-03-12T05:29:09;-0.80;99.90
31765;DHT22;18338;53.240;8.798;2023-03-12T05:31:35;-0.80;99.90
31765;DHT22;18338;53.240;8.798;2023-03-12T05:34:03;-0.80;99.90
31765;DHT22;18338;53.240;8.798;2023-03-12T05:36:29;-0.90;99.90
31765;DHT22;18338;53.240;8.798;2023-03-12T05:38:56;-0.90;99.90
31765;DHT22;18338;53.240;8.798;2023-03-12T05:41:28;-1.00;99.90
31765;DHT22;18338;53.240;8.798;2023-03-12T05:43:55;-1.10;99.90
31765;DHT22;18338;53.240;8.798;2023-03-12T05:46:24;-1.10;99.90
31765;DHT22;18338;53.240;8.798;2023-03-12T05:48:51;-1.00;99.90
31765;DHT22;18338;53.240;8.798;2023-03-12T05:51:19;-0.90;99.90
31765;DHT22;18338;53.240;8.798;2023-03-12T05:53:47;-0.90;99.90
31765;DHT22;18338;53.240;8.798;2023-03-12T05:56:15;-0.80;99.90
31765;DHT22;18338;53.240;8.798;2023-03-12T05:58:43;-0.70;99.90
31765;DHT22;18338;53.240;8.798;2023-03-12T06:01:16;-0.70;99.90
31765;DHT22;18338;53.240;8.798;2023-03-12T06:03:43;-0.60;99.90
31765;DHT22;18338;53.240;8.798;2023-03-12T06:06:10;-0.50;99.90
31765;DHT22;18338;53.240;8.798;2023-03-12T06:08:37;-0.40;99.90
31765;DHT22;18338;53.240;8.798;2023-03-12T06:11:04;-0.30;99.90
31765;DHT22;18338;53.240;8.798;2023-03-12T06:13:31;-0.30;99.90
31765;DHT22;18338;53.240;8.798;2023-03-12T06:16:21;-0.20;99.90
31765;DHT22;18338;53.240;8.798;2023-03-12T06:19:07;-0.20;99.90
31765;DHT22;18338;53.240;8.798;2023-03-12T06:21:41;-0.20;99.90
31765;DHT22;18338;53.240;8.798;2023-03-12T06:24:09;-0.10;99.90
31765;DHT22;18338;53.240;8.798;2023-03-12T06:26:36;-0.10;99.90
31765;DHT22;18338;53.240;8.798;2023-03-12T06:29:03;-0.10;99.90
31765;DHT22;18338;53.240;8.798;2023-03-12T06:31:29;-0.10;99.90
31765;DHT22;18338;53.240;8.798;2023-03-12T06:33:57;0.00;99.90
31765;DHT22;18338;53.240;8.798;2023-03-12T06:36:26;0.00;99.90
31765;DHT22;18338;53.240;8.798;2023-03-12T06:38:53;0.00;99.90
31765;DHT22;18338;53.240;8.798;2023-03-12T06:41:22;0.10;99.90
31765;DHT22;18338;53.240;8.798;2023-03-12T06:43:49;0.20;99.90
31765;DHT22;18338;53.240;8.798;2023-03-12T06:46:18;0.20;99.90
31765;DHT22;18338;53.240;8.798;2023-03-12T06:48:47;0.20;99.90
31765;DHT22;18338;53.240;8.798;2023-03-12T06:51:16;0.30;99.90
31765;DHT22;18338;53.240;8.798;2023-03-12T06:53:44;0.30;99.90
31765;DHT22;18338;53.240;8.798;2023-03-12T06:56:12;0.40;99.90
31765;DHT22;18338;53.240;8.798;2023-03-12T06:58:39;0.50;99.90
31765;DHT22;18338;53.240;8.798;2023-03-12T07:01:06;0.50;99.90
31765;DHT22;18338;53.240;8.798;2023-03-12T07:03:33;0.50;99.90
31765;DHT22;18338;53.240;8.798;2023-03-12T07:06:00;0.60;99.90
31765;DHT22;18338;53.240;8.798;2023-03-12T07:08:27;0.70;99.90
31765;DHT22;18338;53.240;8.798;2023-03-12T07:10:58;0.80;99.90
31765;DHT22;18338;53.240;8.798;2023-03-12T07:13:28;0.90;99.90
31765;DHT22;18338;53.240;8.798;2023-03-12T07:15:55;1.10;99.90
31765;DHT22;18338;53.240;8.798;2023-03-12T07:18:21;1.10;99.90
31765;DHT22;18338;53.240;8.798;2023-03-12T07:20:48;1.40;99.90
31765;DHT22;18338;53.240;8.798;2023-03-12T07:23:15;1.60;99.90
31765;DHT22;18338;53.240;8.798;2023-03-12T07:25:42;1.90;99.90
31765;DHT22;18338;53.240;8.798;2023-03-12T07:28:11;1.90;99.90
31765;DHT22;18338;53.240;8.798;2023-03-12T07:30:39;2.00;99.90
31765;DHT22;18338;53.240;8.798;2023-03-12T07:33:11;2.10;99.90
31765;DHT22;18338;53.240;8.798;2023-03-12T07:35:39;2.50;99.90
31765;DHT22;18338;53.240;8.798;2023-03-12T07:38:06;2.30;99.90
31765;DHT22;18338;53.240;8.798;2023-03-12T07:40:34;2.30;99.90
31765;DHT22;18338;53.240;8.798;2023-03-12T07:43:02;2.50;99.90
31765;DHT22;18338;53.240;8.798;2023-03-12T07:45:29;2.40;99.90
31765;DHT22;18338;53.240;8.798;2023-03-12T07:47:56;2.50;99.90
31765;DHT22;18338;53.240;8.798;2023-03-12T07:50:23;2.50;99.90
31765;DHT22;18338;53.240;8.798;2023-03-12T07:52:50;2.50;99.90
31765;DHT22;18338;53.240;8.798;2023-03-12T07:55:17;2.70;99.90
31765;DHT22;18338;53.240;8.798;2023-03-12T07:57:44;2.80;99.90
31765;DHT22;18338;53.240;8.798;2023-03-12T08:00:12;2.70;99.90
31765;DHT22;18338;53.240;8.798;2023-03-12T08:02:40;2.60;99.90
31765;DHT22;18338;53.240;8.798;2023-03-12T08:05:08;2.40;99.90
31765;DHT22;18338;53.240;8.798;2023-03-12T08:07:36;2.60;99.90
31765;DHT22;18338;53.240;8.798;2023-03-12T08:10:04;2.60;99.90
31765;DHT22;18338;53.240;8.798;2023-03-12T08:12:31;2.40;99.90
31765;DHT22;18338;53.240;8.798;2023-03-12T08:14:58;2.40;99.90
31765;DHT22;18338;53.240;8.798;2023-03-12T08:17:24;2.30;99.90
31765;DHT22;18338;53.240;8.798;2023-03-12T08:19:52;2.40;99.90
31765;DHT22;18338;53.240;8.798;2023-03-12T08:22:19;2.60;99.90
31765;DHT22;18338;53.240;8.798;2023-03-12T08:24:46;3.10;99.90
31765;DHT22;18338;53.240;8.798;2023-03-12T08:27:13;3.50;99.90
31765;DHT22;18338;53.240;8.798;2023-03-12T08:29:40;3.90;99.90
31765;DHT22;18338;53.240;8.798;2023-03-12T08:32:08;4.10;99.90
31765;DHT22;18338;53.240;8.798;2023-03-12T08:34:36;4.30;99.90
31765;DHT22;18338;53.240;8.798;2023-03-12T08:37:03;4.50;99.90
31765;DHT22;18338;53.240;8.798;2023-03-12T08:39:30;4.90;99.90
31765;DHT22;18338;53.240;8.798;2023-03-12T08:41:57;5.40;99.90
31765;DHT22;18338;53.240;8.798;2023-03-12T08:44:24;5.90;99.90
31765;DHT22;18338;53.240;8.798;2023-03-12T08:46:51;5.70;99.90
31765;DHT22;18338;53.240;8.798;2023-03-12T08:49:19;5.70;99.90
31765;DHT22;18338;53.240;8.798;2023-03-12T08:51:46;6.00;99.90
31765;DHT22;18338;53.240;8.798;2023-03-12T08:54:13;6.20;99.90
31765;DHT22;18338;53.240;8.798;2023-03-12T08:56:40;6.80;99.90
31765;DHT22;18338;53.240;8.798;2023-03-12T08:59:12;7.80;99.90
31765;DHT22;18338;53.240;8.798;2023-03-12T09:01:39;8.00;99.90
31765;DHT22;18338;53.240;8.798;2023-03-12T09:04:09;7.80;99.90
31765;DHT22;18338;53.240;8.798;2023-03-12T09:06:36;6.70;99.90
31765;DHT22;18338;53.240;8.798;2023-03-12T09:09:04;5.90;99.90
31765;DHT22;18338;53.240;8.798;2023-03-12T09:11:32;5.80;99.90
31765;DHT22;18338;53.240;8.798;2023-03-12T09:13:59;6.00;99.90
31765;DHT22;18338;53.240;8.798;2023-03-12T09:16:46;6.70;99.90
31765;DHT22;18338;53.240;8.798;2023-03-12T09:19:13;7.10;99.90
31765;DHT22;18338;53.240;8.798;2023-03-12T09:21:40;7.90;99.90
31765;DHT22;18338;53.240;8.798;2023-03-12T09:24:07;8.10;99.90
31765;DHT22;18338;53.240;8.798;2023-03-12T09:26:33;8.20;99.90
31765;DHT22;18338;53.240;8.798;2023-03-12T09:29:00;8.10;99.90
31765;DHT22;18338;53.240;8.798;2023-03-12T09:31:28;8.40;99.90
31765;DHT22;18338;53.240;8.798;2023-03-12T09:33:54;8.60;99.90
31765;DHT22;18338;53.240;8.798;2023-03-12T09:36:21;8.70;99.90
31765;DHT22;18338;53.240;8.798;2023-03-12T09:38:47;8.70;99.90
31765;DHT22;18338;53.240;8.798;2023-03-12T09:41:24;8.80;99.90
31765;DHT22;18338;53.240;8.798;2023-03-12T09:44:02;8.70;99.90
31765;DHT22;18338;53.240;8.798;2023-03-12T09:46:40;8.30;99.90
31765;DHT22;18338;53.240;8.798;2023-03-12T09:51:57;8.30;99.90
31765;DHT22;18338;53.240;8.798;2023-03-12T09:54:35;8.10;99.90
31765;DHT22;18338;53.240;8.798;2023-03-12T09:57:13;8.30;99.90
31765;DHT22;18338;53.240;8.798;2023-03-12T09:59:45;8.30;99.90
31765;DHT22;18338;53.240;8.798;2023-03-12T10:02:29;8.60;99.90
31765;DHT22;18338;53.240;8.798;2023-03-12T10:05:05;7.80;99.90
31765;DHT22;18338;53.240;8.798;2023-03-12T10:07:36;7.60;99.90
31765;DHT22;18338;53.240;8.798;2023-03-12T10:10:20;8.30;99.90
31765;DHT22;18338;53.240;8.798;2023-03-12T10:13:11;8.30;99.90
31765;DHT22;18338;53.240;8.798;2023-03-12T10:26:43;8.10;99.90
31765;DHT22;18338;53.240;8.798;2023-03-12T10:29:20;8.00;99.90
31765;DHT22;18338;53.240;8.798;2023-03-12T10:34:53;10.10;99.90
31765;DHT22;18338;53.240;8.798;2023-03-12T10:37:28;9.40;99.90
31765;DHT22;18338;53.240;8.798;2023-03-12T10:39:56;9.20;99.90
31765;DHT22;18338;53.240;8.798;2023-03-12T10:42:28;8.80;99.90
31765;DHT22;18338;53.240;8.798;2023-03-12T10:45:21;7.80;99.90
31765;DHT22;18338;53.240;8.798;2023-03-12T10:47:51;6.90;99.90
31765;DHT22;18338;53.240;8.798;2023-03-12T10:50:32;6.30;99.90
31765;DHT22;18338;53.240;8.798;2023-03-12T10:53:26;6.20;99.90
31765;DHT22;18338;53.240;8.798;2023-03-12T10:56:09;6.20;99.90
31765;DHT22;18338;53.240;8.798;2023-03-12T10:58:48;6.30;99.90
31765;DHT22;18338;53.240;8.798;2023-03-12T11:03:45;6.40;99.90
31765;DHT22;18338;53.240;8.798;2023-03-12T11:06:26;6.30;99.90
31765;DHT22;18338;53.240;8.798;2023-03-12T11:09:12;6.20;99.90
31765;DHT22;18338;53.240;8.798;2023-03-12T11:11:44;6.30;99.90
31765;DHT22;18338;53.240;8.798;2023-03-12T11:14:16;6.20;99.90
31765;DHT22;18338;53.240;8.798;2023-03-12T11:16:43;6.40;99.90
31765;DHT22;18338;53.240;8.798;2023-03-12T11:19:24;6.20;99.90
31765;DHT22;18338;53.240;8.798;2023-03-12T11:21:57;6.00;99.90
31765;DHT22;18338;53.240;8.798;2023-03-12T11:24:24;5.90;99.90
31765;DHT22;18338;53.240;8.798;2023-03-12T11:29:43;5.70;99.90
31765;DHT22;18338;53.240;8.798;2023-03-12T11:32:15;5.90;99.90
31765;DHT22;18338;53.240;8.798;2023-03-12T11:34:44;6.10;99.90
31765;DHT22;18338;53.240;8.798;2023-03-12T11:42:53;6.10;99.90
31765;DHT22;18338;53.240;8.798;2023-03-12T11:48:52;5.70;99.90
31765;DHT22;18338;53.240;8.798;2023-03-12T11:59:54;4.20;99.90
31765;DHT22;18338;53.240;8.798;2023-03-12T12:09:07;4.00;99.90
31765;DHT22;18338;53.240;8.798;2023-03-12T12:11:44;3.90;99.90
31765;DHT22;18338;53.240;8.798;2023-03-12T12:14:38;3.80;99.90
31765;DHT22;18338;53.240;8.798;2023-03-12T12:36:30;3.20;99.90
31765;DHT22;18338;53.240;8.798;2023-03-12T12:41:35;3.10;99.90
31765;DHT22;18338;53.240;8.798;2023-03-12T12:44:15;3.10;99.90
31765;DHT22;18338;53.240;8.798;2023-03-12T12:46:49;3.00;99.90
31765;DHT22;18338;53.240;8.798;2023-03-12T12:49:23;3.00;99.90
31765;DHT22;18338;53.240;8.798;2023-03-12T12:51:57;3.10;99.90
31765;DHT22;18338;53.240;8.798;2023-03-12T12:54:54;3.10;99.90
31765;DHT22;18338;53.240;8.798;2023-03-12T12:58:11;3.10;99.90
31765;DHT22;18338;53.240;8.798;2023-03-12T13:00:51;3.20;99.90
31765;DHT22;18338;53.240;8.798;2023-03-12T13:03:22;3.10;99.90
31765;DHT22;18338;53.240;8.798;2023-03-12T13:06:04;3.10;99.90
31765;DHT22;18338;53.240;8.798;2023-03-12T13:10:58;3.10;99.90
31765;DHT22;18338;53.240;8.798;2023-03-12T13:13:49;3.10;99.90
31765;DHT22;18338;53.240;8.798;2023-03-12T13:16:18;3.20;99.90
31765;DHT22;18338;53.240;8.798;2023-03-12T13:18:59;3.20;99.90
31765;DHT22;18338;53.240;8.798;2023-03-12T13:21:38;3.20;99.90
31765;DHT22;18338;53.240;8.798;2023-03-12T13:29:45;3.20;99.90
31765;DHT22;18338;53.240;8.798;2023-03-12T13:32:36;3.20;99.90
31765;DHT22;18338;53.240;8.798;2023-03-12T13:45:50;3.20;99.90
31765;DHT22;18338;53.240;8.798;2023-03-12T13:48:23;3.20;99.90
31765;DHT22;18338;53.240;8.798;2023-03-12T13:51:01;3.20;99.90
31765;DHT22;18338;53.240;8.798;2023-03-12T13:53:37;3.20;99.90
31765;DHT22;18338;53.240;8.798;2023-03-12T13:56:10;3.20;99.90
31765;DHT22;18338;53.240;8.798;2023-03-12T13:58:53;3.20;99.90
31765;DHT22;18338;53.240;8.798;2023-03-12T14:01:25;3.20;99.90
31765;DHT22;18338;53.240;8.798;2023-03-12T14:03:57;3.20;99.90
31765;DHT22;18338;53.240;8.798;2023-03-12T14:06:28;3.30;99.90
31765;DHT22;18338;53.240;8.798;2023-03-12T14:09:11;3.30;99.90
31765;DHT22;18338;53.240;8.798;2023-03-12T14:17:25;3.40;99.90
31765;DHT22;18338;53.240;8.798;2023-03-12T14:20:15;3.40;99.90
31765;DHT22;18338;53.240;8.798;2023-03-12T14:22:44;3.50;99.90
31765;DHT22;18338;53.240;8.798;2023-03-12T14:25:33;3.50;99.90
31765;DHT22;18338;53.240;8.798;2023-03-12T14:28:03;3.50;99.90
31765;DHT22;18338;53.240;8.798;2023-03-12T14:33:11;3.60;99.90
31765;DHT22;18338;53.240;8.798;2023-03-12T14:35:47;3.60;99.90
31765;DHT22;18338;53.240;8.798;2023-03-12T14:38:24;3.60;99.90
31765;DHT22;18338;53.240;8.798;2023-03-12T14:43:33;3.60;99.90
31765;DHT22;18338;53.240;8.798;2023-03-12T14:46:03;3.70;99.90
31765;DHT22;18338;53.240;8.798;2023-03-12T14:48:34;3.80;99.90
31765;DHT22;18338;53.240;8.798;2023-03-12T14:51:04;3.80;99.90
31765;DHT22;18338;53.240;8.798;2023-03-12T14:53:37;3.70;99.90
31765;DHT22;18338;53.240;8.798;2023-03-12T14:58:44;3.70;99.90
31765;DHT22;18338;53.240;8.798;2023-03-12T15:01:17;3.70;99.90
31765;DHT22;18338;53.240;8.798;2023-03-12T15:03:47;3.80;99.90
31765;DHT22;18338;53.240;8.798;2023-03-12T15:06:20;3.90;99.90
31765;DHT22;18338;53.240;8.798;2023-03-12T15:08:50;4.00;99.90
31765;DHT22;18338;53.240;8.798;2023-03-12T15:11:22;3.90;99.90
31765;DHT22;18338;53.240;8.798;2023-03-12T15:13:51;3.80;99.90
31765;DHT22;18338;53.240;8.798;2023-03-12T15:16:20;3.80;99.90
31765;DHT22;18338;53.240;8.798;2023-03-12T15:18:47;3.80;99.90
31765;DHT22;18338;53.240;8.798;2023-03-12T15:21:16;3.80;99.90
31765;DHT22;18338;53.240;8.798;2023-03-12T15:23:45;3.80;99.90
31765;DHT22;18338;53.240;8.798;2023-03-12T15:29:03;3.90;99.90
31765;DHT22;18338;53.240;8.798;2023-03-12T15:31:47;3.90;99.90
31765;DHT22;18338;53.240;8.798;2023-03-12T15:34:36;4.00;99.90
31765;DHT22;18338;53.240;8.798;2023-03-12T15:40:20;4.10;99.90
31765;DHT22;18338;53.240;8.798;2023-03-12T15:42:47;4.10;99.90
31765;DHT22;18338;53.240;8.798;2023-03-12T15:45:36;4.10;99.90
31765;DHT22;18338;53.240;8.798;2023-03-12T15:48:32;4.10;99.90
31765;DHT22;18338;53.240;8.798;2023-03-12T15:50:59;4.20;99.90
31765;DHT22;18338;53.240;8.798;2023-03-12T15:53:33;4.20;99.90
31765;DHT22;18338;53.240;8.798;2023-03-12T15:56:21;4.20;99.90
31765;DHT22;18338;53.240;8.798;2023-03-12T15:59:00;4.30;99.90
31765;DHT22;18338;53.240;8.798;2023-03-12T16:01:27;4.30;99.90
31765;DHT22;18338;53.240;8.798;2023-03-12T16:03:54;4.30;99.90
31765;DHT22;18338;53.240;8.798;2023-03-12T16:06:24;4.50;99.90
31765;DHT22;18338;53.240;8.798;2023-03-12T16:08:54;4.60;99.90
31765;DHT22;18338;53.240;8.798;2023-03-12T16:11:27;4.60;99.90
31765;DHT22;18338;53.240;8.798;2023-03-12T16:16:32;4.70;99.90
31765;DHT22;18338;53.240;8.798;2023-03-12T16:18:58;4.80;99.90
31765;DHT22;18338;53.240;8.798;2023-03-12T16:21:25;4.90;99.90
31765;DHT22;18338;53.240;8.798;2023-03-12T16:23:52;4.90;99.90
31765;DHT22;18338;53.240;8.798;2023-03-12T16:26:19;5.00;99.90
31765;DHT22;18338;53.240;8.798;2023-03-12T16:28:47;5.00;99.90
31765;DHT22;18338;53.240;8.798;2023-03-12T16:31:15;5.10;99.90
31765;DHT22;18338;53.240;8.798;2023-03-12T16:33:42;5.00;99.90
31765;DHT22;18338;53.240;8.798;2023-03-12T16:36:13;5.10;99.90
31765;DHT22;18338;53.240;8.798;2023-03-12T16:38:42;5.10;99.90
31765;DHT22;18338;53.240;8.798;2023-03-12T16:41:11;5.20;99.90
31765;DHT22;18338;53.240;8.798;2023-03-12T16:43:39;5.20;99.90
31765;DHT22;18338;53.240;8.798;2023-03-12T16:46:07;5.30;99.90
31765;DHT22;18338;53.240;8.798;2023-03-12T16:48:35;5.30;99.90
31765;DHT22;18338;53.240;8.798;2023-03-12T16:51:02;5.40;99.90
31765;DHT22;18338;53.240;8.798;2023-03-12T16:53:29;5.50;99.90
31765;DHT22;18338;53.240;8.798;2023-03-12T16:55:58;5.70;99.90
31765;DHT22;18338;53.240;8.798;2023-03-12T16:58:27;5.70;99.90
31765;DHT22;18338;53.240;8.798;2023-03-12T17:00:55;5.80;99.90
31765;DHT22;18338;53.240;8.798;2023-03-12T17:03:35;5.80;99.90
31765;DHT22;18338;53.240;8.798;2023-03-12T17:06:05;6.00;99.90
31765;DHT22;18338;53.240;8.798;2023-03-12T17:08:32;6.10;99.90
31765;DHT22;18338;53.240;8.798;2023-03-12T17:11:01;6.20;99.90
31765;DHT22;18338;53.240;8.798;2023-03-12T17:13:30;6.20;99.90
31765;DHT22;18338;53.240;8.798;2023-03-12T17:15:57;6.30;99.90
31765;DHT22;18338;53.240;8.798;2023-03-12T17:18:24;6.40;99.90
31765;DHT22;18338;53.240;8.798;2023-03-12T17:20:51;6.40;99.90
31765;DHT22;18338;53.240;8.798;2023-03-12T17:23:18;6.50;99.90
31765;DHT22;18338;53.240;8.798;2023-03-12T17:25:45;6.50;99.90
31765;DHT22;18338;53.240;8.798;2023-03-12T17:28:12;6.70;99.90
31765;DHT22;18338;53.240;8.798;2023-03-12T17:30:42;6.70;99.90
31765;DHT22;18338;53.240;8.798;2023-03-12T17:33:17;6.60;99.90
31765;DHT22;18338;53.240;8.798;2023-03-12T17:35:45;6.70;99.90
31765;DHT22;18338;53.240;8.798;2023-03-12T17:38:12;6.80;99.90
31765;DHT22;18338;53.240;8.798;2023-03-12T17:40:43;6.80;99.90
31765;DHT22;18338;53.240;8.798;2023-03-12T17:43:10;6.80;99.90
31765;DHT22;18338;53.240;8.798;2023-03-12T17:45:37;6.90;99.90
31765;DHT22;18338;53.240;8.798;2023-03-12T17:48:04;6.90;99.90
31765;DHT22;18338;53.240;8.798;2023-03-12T17:50:31;7.00;99.90
31765;DHT22;18338;53.240;8.798;2023-03-12T17:52:58;7.00;99.90
31765;DHT22;18338;53.240;8.798;2023-03-12T17:55:25;7.00;99.90
31765;DHT22;18338;53.240;8.798;2023-03-12T17:57:51;7.00;99.90
31765;DHT22;18338;53.240;8.798;2023-03-12T18:00:18;7.10;99.90
31765;DHT22;18338;53.240;8.798;2023-03-12T18:02:48;7.10;99.90